Terminal Aerodrome Forecast
Issued by NWS Twin Cities, MN

Home | Current Version | Previous Version | Graphics & Text | Print | Product List | Glossary On
Versions: 1 2 3 4 5 6 7 8 9 10 11 12 13 14 15 16 17 18 19 20 21 22 23 24 25 26 27 28 29 30
000
FTUS43 KMPX 062058 AAA
TAFMSP
TAF AMD
KMSP 062058Z 0621/0724 13015G22KT P6SM SCT120
     FM062200 15017G25KT P6SM -SHRA SCT025 BKN050
      TEMPO 0622/0702 3SM -TSRA BKN025CB
     FM070500 15012KT P6SM VCSH BKN040
     FM071000 16014KT 4SM -RA BR SCT012 OVC025 PROB30 0712/0718 2SM
      TSRA SCT025 BKN040CB
     FM071800 19012KT 6SM -RA BR SCT025 BKN040=

USA.gov is the U.S. government's official web portal to all federal, state and local government web resources and services.